Time;durP1;ratioP1;P1;durP2;ratioP2;P2;SDS_P1;SDS_P2;PMS_P1;PMS_P2;Temp;Humidity;BMP_temperature;BMP_pressure;BME280_temperature;BME280_humidity;BME280_pressure;Samples;Min_cycle;Max_cycle;Signal;HPM_P1;HPM_P2
2022/03/09 05:02:38;;;;;;;6.13;5.35;;;-0.40;99.90;;;;;;4929727;23;20228;-71
2022/03/09 05:05:06;;;;;;;6.80;5.95;;;-0.50;99.90;;;;;;4917298;29;20655;-69
2022/03/09 05:07:33;;;;;;;7.47;6.18;;;-0.40;99.90;;;;;;4928486;29;20974;-69
2022/03/09 05:10:00;;;;;;;7.72;5.90;;;-0.50;99.90;;;;;;4932211;29;20206;-68
2022/03/09 05:12:27;;;;;;;9.07;6.35;;;-0.50;99.90;;;;;;4918560;29;20226;-68
2022/03/09 05:14:53;;;;;;;5.70;5.30;;;-0.50;99.90;;;;;;4914160;29;20222;-68
2022/03/09 05:17:20;;;;;;;5.22;4.72;;;-0.50;99.90;;;;;;4913502;29;20243;-67
2022/03/09 05:19:49;;;;;;;7.70;6.10;;;-0.50;99.90;;;;;;4906067;29;20240;-68
2022/03/09 05:22:15;;;;;;;5.95;5.55;;;-0.50;99.90;;;;;;4921299;29;20222;-68
2022/03/09 05:24:42;;;;;;;5.70;5.10;;;-0.50;99.90;;;;;;4932562;29;20218;-67
2022/03/09 05:27:09;;;;;;;6.78;5.20;;;-0.50;99.90;;;;;;4920017;29;20206;-67
2022/03/09 05:29:35;;;;;;;5.70;5.20;;;-0.50;99.90;;;;;;4912775;29;20219;-69
2022/03/09 05:32:02;;;;;;;6.50;4.47;;;-0.50;99.90;;;;;;4913163;29;20230;-68
2022/03/09 05:34:29;;;;;;;5.90;5.35;;;-0.50;99.90;;;;;;4912968;29;20215;-68
2022/03/09 05:36:57;;;;;;;5.47;4.93;;;-0.50;99.90;;;;;;4908274;29;20212;-68
2022/03/09 05:39:24;;;;;;;6.63;5.18;;;-0.50;99.90;;;;;;4901770;29;20215;-69
2022/03/09 05:41:50;;;;;;;4.45;4.15;;;-0.50;99.90;;;;;;4908123;29;20595;-69
2022/03/09 05:44:17;;;;;;;6.97;6.07;;;-0.50;99.90;;;;;;4913332;29;20211;-69
2022/03/09 05:46:44;;;;;;;5.47;4.90;;;-0.60;99.90;;;;;;4916312;29;20530;-69
2022/03/09 05:49:11;;;;;;;5.95;5.45;;;-0.60;99.90;;;;;;4913822;29;20683;-68
2022/03/09 05:51:37;;;;;;;6.00;5.38;;;-0.60;99.90;;;;;;4913276;29;20318;-68
2022/03/09 05:54:06;;;;;;;6.22;5.72;;;-0.60;99.90;;;;;;4913832;29;20220;-71
2022/03/09 05:56:32;;;;;;;5.00;4.50;;;-0.60;99.90;;;;;;4916360;29;20776;-70
2022/03/09 05:58:59;;;;;;;7.78;5.75;;;-0.60;99.90;;;;;;4905593;29;20215;-69
2022/03/09 06:01:26;;;;;;;5.57;5.07;;;-0.50;99.90;;;;;;4913030;29;20230;-68
2022/03/09 06:03:52;;;;;;;6.50;5.80;;;-0.60;99.90;;;;;;4900773;29;20215;-70
2022/03/09 06:06:19;;;;;;;5.07;4.60;;;-0.60;99.90;;;;;;4902746;29;20210;-68
2022/03/09 06:08:46;;;;;;;9.07;5.55;;;-0.60;99.90;;;;;;4912088;29;20798;-70
2022/03/09 06:11:14;;;;;;;5.55;4.90;;;-0.60;99.90;;;;;;4899905;29;20305;-69
2022/03/09 06:13:41;;;;;;;6.82;6.00;;;-0.50;99.90;;;;;;4896605;29;20698;-69
2022/03/09 06:16:07;;;;;;;7.47;5.93;;;-0.50;99.90;;;;;;4912190;29;20298;-68
2022/03/09 06:18:34;;;;;;;6.13;5.63;;;-0.50;99.90;;;;;;4910912;29;20210;-68
2022/03/09 06:21:01;;;;;;;6.25;5.38;;;-0.50;99.90;;;;;;4907948;29;20251;-69
2022/03/09 06:23:27;;;;;;;8.18;6.25;;;-0.50;99.90;;;;;;4913566;29;20372;-69
2022/03/09 06:25:54;;;;;;;4.93;4.50;;;-0.50;99.90;;;;;;4906267;29;20214;-69
2022/03/09 06:28:22;;;;;;;13.02;8.57;;;-0.40;99.90;;;;;;4915306;29;20342;-69
2022/03/09 06:30:49;;;;;;;9.95;7.63;;;-0.40;99.90;;;;;;4908489;29;20230;-69
2022/03/09 06:33:16;;;;;;;8.90;7.22;;;-0.40;99.90;;;;;;4914062;29;20206;-69
2022/03/09 06:35:43;;;;;;;8.43;5.78;;;-0.30;99.90;;;;;;4910270;29;20222;-70
2022/03/09 06:38:10;;;;;;;9.77;6.95;;;-0.30;99.90;;;;;;4911507;29;20602;-69
2022/03/09 06:40:37;;;;;;;15.00;9.90;;;-0.20;99.90;;;;;;4914145;29;20231;-68
2022/03/09 06:43:04;;;;;;;38.35;20.58;;;-0.20;99.90;;;;;;4913259;29;20722;-66
2022/03/09 06:45:32;;;;;;;39.60;20.88;;;-0.20;99.90;;;;;;4906950;29;20210;-68
2022/03/09 06:47:58;;;;;;;15.13;10.95;;;-0.10;99.90;;;;;;4914859;29;20223;-68
2022/03/09 06:50:25;;;;;;;7.60;6.95;;;-0.10;99.90;;;;;;4914332;29;20217;-69
2022/03/09 06:52:52;;;;;;;7.35;6.70;;;0.00;99.90;;;;;;4909825;29;20207;-66
2022/03/09 06:55:19;;;;;;;10.23;5.75;;;0.00;99.90;;;;;;4897217;29;20219;-67
2022/03/09 06:57:45;;;;;;;6.18;5.47;;;0.10;99.90;;;;;;4915402;29;20211;-68
2022/03/09 07:00:15;;;;;;;8.55;6.88;;;0.10;99.90;;;;;;4913092;29;20593;-67
2022/03/09 07:02:44;;;;;;;8.35;6.38;;;0.20;99.90;;;;;;4904324;29;20226;-68
2022/03/09 07:05:11;;;;;;;10.65;6.75;;;0.30;99.90;;;;;;4914253;29;20211;-68
2022/03/09 07:07:39;;;;;;;6.55;5.95;;;0.30;99.90;;;;;;4915213;29;20210;-66
2022/03/09 07:10:10;;;;;;;7.20;6.60;;;0.40;99.90;;;;;;4914802;29;20820;-68
2022/03/09 07:12:37;;;;;;;6.90;6.30;;;0.50;99.90;;;;;;4914825;29;20233;-68
2022/03/09 07:15:09;;;;;;;9.88;8.65;;;0.60;99.90;;;;;;4903313;29;20239;-68
2022/03/09 07:17:36;;;;;;;12.95;11.60;;;0.60;99.90;;;;;;4895705;29;20668;-66
2022/03/09 07:20:06;;;;;;;12.43;10.15;;;0.70;99.90;;;;;;4905592;29;20246;-68
2022/03/09 07:22:33;;;;;;;11.05;8.25;;;0.80;99.90;;;;;;4911046;29;20242;-68
2022/03/09 07:24:59;;;;;;;6.95;6.13;;;0.80;99.90;;;;;;4906715;29;20270;-68
2022/03/09 07:27:26;;;;;;;40.88;26.70;;;0.90;99.90;;;;;;4906640;29;20266;-69
2022/03/09 07:29:53;;;;;;;9.80;7.80;;;1.00;99.90;;;;;;4912816;29;20274;-67
2022/03/09 07:32:19;;;;;;;6.15;5.57;;;1.10;99.90;;;;;;4910692;29;20226;-67
2022/03/09 07:34:47;;;;;;;14.73;9.43;;;1.20;99.90;;;;;;4902992;29;20238;-68
2022/03/09 07:37:15;;;;;;;12.95;8.30;;;1.30;99.90;;;;;;4909184;29;20215;-69
2022/03/09 07:39:42;;;;;;;7.15;6.65;;;1.40;99.90;;;;;;4905383;29;20207;-69
2022/03/09 07:42:09;;;;;;;6.40;5.82;;;1.40;99.90;;;;;;4918234;29;20225;-68
2022/03/09 07:44:35;;;;;;;8.40;6.03;;;1.50;99.90;;;;;;4907876;29;20211;-67
2022/03/09 07:47:02;;;;;;;6.22;4.88;;;1.60;99.90;;;;;;4909247;29;20270;-69
2022/03/09 07:49:33;;;;;;;8.07;7.32;;;1.70;99.90;;;;;;4900394;29;20331;-68
2022/03/09 07:52:00;;;;;;;7.18;6.55;;;1.80;99.90;;;;;;4907620;29;20223;-68
2022/03/09 07:54:28;;;;;;;14.23;9.88;;;1.80;99.90;;;;;;4913279;29;20822;-69
2022/03/09 07:56:55;;;;;;;12.10;9.73;;;2.00;99.90;;;;;;4908807;29;20214;-68
2022/03/09 07:59:22;;;;;;;9.10;8.30;;;2.00;99.90;;;;;;4908868;29;20207;-67
2022/03/09 08:01:52;;;;;;;5.13;4.82;;;2.10;99.90;;;;;;4913316;29;20245;-68
2022/03/09 08:04:19;;;;;;;7.72;5.60;;;2.30;99.90;;;;;;4907671;29;20452;-68
2022/03/09 08:06:46;;;;;;;10.20;5.30;;;2.40;99.90;;;;;;4911677;29;20206;-68
2022/03/09 08:09:13;;;;;;;4.85;4.45;;;2.50;99.90;;;;;;4912743;29;20305;-68
2022/03/09 08:11:41;;;;;;;5.40;5.10;;;2.70;99.90;;;;;;4913368;29;20219;-67
2022/03/09 08:14:08;;;;;;;5.78;4.93;;;2.70;99.90;;;;;;4906854;29;20203;-68
2022/03/09 08:16:34;;;;;;;10.63;6.03;;;2.80;99.90;;;;;;4907989;29;20635;-68
2022/03/09 08:19:01;;;;;;;8.52;6.07;;;2.80;99.90;;;;;;4907297;29;20210;-69
2022/03/09 08:21:28;;;;;;;8.52;4.65;;;3.00;99.90;;;;;;4905514;29;20222;-68
2022/03/09 08:23:55;;;;;;;5.30;4.85;;;3.10;99.90;;;;;;4914271;29;20760;-69
2022/03/09 08:26:21;;;;;;;5.10;4.60;;;3.20;99.90;;;;;;4907807;29;20214;-69
2022/03/09 08:28:49;;;;;;;4.80;4.45;;;3.30;99.90;;;;;;4913943;29;20211;-67
2022/03/09 08:31:17;;;;;;;10.27;5.63;;;3.50;99.90;;;;;;4912324;29;20763;-67
2022/03/09 08:33:44;;;;;;;5.03;4.63;;;3.60;99.90;;;;;;4913442;29;20213;-69
2022/03/09 08:36:11;;;;;;;4.90;4.50;;;3.80;99.90;;;;;;4904290;29;20329;-66
2022/03/09 08:38:38;;;;;;;5.57;4.63;;;3.80;99.90;;;;;;4909716;29;20206;-67
2022/03/09 08:41:05;;;;;;;4.50;4.20;;;3.90;99.90;;;;;;4913069;29;20282;-66
2022/03/09 08:43:31;;;;;;;4.40;4.20;;;4.00;99.90;;;;;;4904174;29;20646;-67
2022/03/09 08:46:00;;;;;;;5.00;4.70;;;4.10;99.90;;;;;;4913197;29;20467;-67
2022/03/09 08:48:27;;;;;;;4.63;4.32;;;4.40;99.90;;;;;;4909362;29;20639;-65
2022/03/09 08:50:54;;;;;;;5.35;4.82;;;4.50;99.90;;;;;;4907938;29;20238;-69
2022/03/09 08:53:21;;;;;;;4.68;4.30;;;4.60;99.90;;;;;;4913565;29;20210;-68
2022/03/09 08:55:48;;;;;;;5.35;4.97;;;4.70;99.90;;;;;;4913660;29;20290;-68
2022/03/09 08:58:15;;;;;;;6.00;5.50;;;4.80;99.90;;;;;;4913447;29;20687;-66
2022/03/09 09:00:42;;;;;;;5.10;4.70;;;4.80;99.90;;;;;;4912551;29;20245;-67
2022/03/09 09:03:10;;;;;;;10.15;7.32;;;5.00;99.90;;;;;;4913282;29;20670;-68
2022/03/09 09:05:37;;;;;;;4.63;4.32;;;5.10;99.90;;;;;;4913203;29;20638;-68
2022/03/09 09:08:04;;;;;;;4.47;4.05;;;5.20;99.90;;;;;;4912724;29;20225;-67
2022/03/09 09:10:31;;;;;;;5.15;4.75;;;5.30;99.90;;;;;;4912759;29;20384;-66
2022/03/09 09:12:58;;;;;;;4.88;3.92;;;5.40;99.90;;;;;;4913044;29;20250;-67
2022/03/09 09:15:25;;;;;;;6.38;5.97;;;5.50;99.90;;;;;;4899528;29;20246;-67
2022/03/09 09:17:57;;;;;;;5.57;5.28;;;5.50;99.90;;;;;;4901172;29;20213;-68
2022/03/09 09:20:26;;;;;;;3.20;3.10;;;5.60;99.90;;;;;;4910182;29;20282;-67
2022/03/09 09:22:53;;;;;;;4.10;3.80;;;5.80;99.90;;;;;;4906783;29;20314;-67
2022/03/09 09:25:20;;;;;;;4.25;3.42;;;5.90;99.90;;;;;;4894167;29;20218;-67
2022/03/09 09:27:47;;;;;;;6.63;4.15;;;6.10;99.90;;;;;;4900661;29;20262;-67
2022/03/09 09:30:14;;;;;;;6.07;3.75;;;6.30;99.90;;;;;;4912182;29;20289;-67
2022/03/09 09:32:41;;;;;;;4.90;4.50;;;6.40;99.90;;;;;;4913360;29;20211;-67
2022/03/09 09:35:08;;;;;;;4.10;3.80;;;6.50;99.90;;;;;;4912532;29;20210;-68
2022/03/09 09:37:36;;;;;;;3.50;3.40;;;6.50;99.90;;;;;;4912387;29;20210;-67
2022/03/09 09:40:04;;;;;;;5.82;5.30;;;6.60;99.90;;;;;;4912472;29;20257;-67
2022/03/09 09:42:31;;;;;;;4.70;3.88;;;6.70;99.90;;;;;;4912730;29;20233;-67
2022/03/09 09:45:00;;;;;;;4.93;4.68;;;6.80;99.90;;;;;;4912713;29;20831;-66
2022/03/09 09:47:28;;;;;;;4.38;4.07;;;7.00;99.90;;;;;;4912688;29;20289;-68
2022/03/09 09:49:55;;;;;;;4.32;3.83;;;7.10;99.90;;;;;;4912260;29;20253;-67
2022/03/09 09:52:24;;;;;;;4.60;4.20;;;7.20;99.90;;;;;;4912340;29;20240;-66
2022/03/09 09:54:55;;;;;;;5.10;4.60;;;7.30;99.90;;;;;;4913101;29;20591;-70
2022/03/09 09:57:22;;;;;;;4.32;4.00;;;7.40;99.90;;;;;;4913059;29;20210;-68
2022/03/09 09:59:50;;;;;;;5.85;4.20;;;7.50;99.90;;;;;;4915355;29;20683;-67
2022/03/09 10:02:17;;;;;;;5.68;4.03;;;7.50;99.90;;;;;;4918185;29;20759;-66
2022/03/09 10:04:44;;;;;;;5.30;4.80;;;7.60;99.90;;;;;;4914146;29;20223;-68
2022/03/09 10:07:11;;;;;;;5.47;4.45;;;7.70;99.90;;;;;;4902680;29;20210;-68
2022/03/09 10:09:39;;;;;;;4.57;4.18;;;7.80;99.90;;;;;;4915302;29;20620;-69
2022/03/09 10:12:09;;;;;;;5.72;5.03;;;7.90;99.90;;;;;;4916604;29;20373;-68
2022/03/09 10:14:47;;;;;;;3.95;3.75;;;8.00;99.90;;;;;;4916125;29;20215;-68
2022/03/09 10:17:17;;;;;;;6.10;5.60;;;8.00;99.90;;;;;;4916023;29;20313;-69
2022/03/09 10:19:46;;;;;;;4.85;4.55;;;8.00;99.90;;;;;;4914981;29;20207;-68
2022/03/09 10:22:27;;;;;;;5.05;4.22;;;8.10;99.90;;;;;;4916017;29;20226;-68
2022/03/09 10:24:56;;;;;;;7.40;6.80;;;8.20;99.90;;;;;;4915683;29;20230;-69
2022/03/09 10:27:41;;;;;;;4.45;4.25;;;8.20;99.90;;;;;;4916063;29;20214;-67
2022/03/09 10:30:10;;;;;;;5.90;5.45;;;8.20;99.90;;;;;;4915375;29;20242;-68
2022/03/09 10:32:48;;;;;;;6.45;5.95;;;8.20;99.90;;;;;;4915800;29;20231;-68
2022/03/09 10:35:18;;;;;;;4.57;4.25;;;8.30;99.90;;;;;;4909837;29;20215;-67
2022/03/09 10:37:47;;;;;;;4.95;4.60;;;8.30;99.90;;;;;;4896559;29;20205;-68
2022/03/09 10:40:16;;;;;;;5.10;4.65;;;8.40;99.90;;;;;;4913656;29;20641;-67
2022/03/09 10:42:44;;;;;;;5.47;4.97;;;8.60;99.90;;;;;;4915673;29;20627;-68
2022/03/09 10:45:11;;;;;;;4.70;4.20;;;8.60;99.90;;;;;;4915794;29;20348;-68
2022/03/09 10:47:39;;;;;;;5.07;4.68;;;8.60;99.90;;;;;;4915836;29;20218;-67
2022/03/09 10:50:14;;;;;;;8.23;7.40;;;8.70;99.90;;;;;;4914548;29;20613;-67
2022/03/09 10:52:46;;;;;;;6.55;5.90;;;8.80;99.90;;;;;;4915478;29;20355;-68
2022/03/09 10:55:38;;;;;;;9.50;8.50;;;8.80;99.90;;;;;;4915402;29;20206;-69
2022/03/09 10:58:11;;;;;;;5.03;4.53;;;8.80;99.90;;;;;;4905586;29;20247;-68
2022/03/09 11:00:40;;;;;;;6.28;5.10;;;8.90;99.90;;;;;;4895931;29;20246;-67
2022/03/09 11:03:08;;;;;;;4.90;4.50;;;9.00;99.90;;;;;;4896138;29;20218;-68
2022/03/09 11:05:36;;;;;;;5.75;5.15;;;9.20;99.90;;;;;;4896100;29;20274;-69
2022/03/09 11:08:03;;;;;;;5.60;5.10;;;9.30;99.40;;;;;;4903528;29;20350;-67
2022/03/09 11:10:30;;;;;;;6.22;5.20;;;9.40;99.10;;;;;;4903137;29;20212;-68
2022/03/09 11:12:57;;;;;;;6.75;5.60;;;9.40;98.90;;;;;;4896207;29;20637;-68
2022/03/09 11:15:27;;;;;;;5.82;5.32;;;9.40;99.20;;;;;;4896135;29;20223;-68
2022/03/09 11:17:54;;;;;;;5.28;4.97;;;9.50;99.10;;;;;;4896731;29;20632;-69
2022/03/09 11:20:21;;;;;;;5.28;4.85;;;9.60;99.00;;;;;;4912680;29;20211;-68
2022/03/09 11:22:48;;;;;;;5.88;5.35;;;9.60;98.80;;;;;;4914698;29;20210;-68
2022/03/09 11:25:15;;;;;;;6.70;6.00;;;9.60;98.40;;;;;;4908177;29;20231;-67
2022/03/09 11:27:47;;;;;;;8.63;7.82;;;9.60;98.80;;;;;;4900291;29;20254;-68
2022/03/09 11:30:27;;;;;;;12.13;5.90;;;9.70;98.50;;;;;;4914936;29;20218;-67
2022/03/09 11:32:55;;;;;;;4.75;4.35;;;9.80;97.60;;;;;;4914626;29;20591;-67
2022/03/09 11:35:36;;;;;;;5.57;5.05;;;9.90;97.30;;;;;;4914273;29;20289;-68
2022/03/09 11:38:04;;;;;;;4.50;4.20;;;9.90;97.30;;;;;;4898967;29;20218;-68
2022/03/09 11:40:31;;;;;;;5.72;5.22;;;10.00;97.20;;;;;;4908425;29;20247;-66
2022/03/09 11:43:27;;;;;;;5.43;5.13;;;10.10;96.60;;;;;;4914622;29;20210;-67
2022/03/09 11:45:55;;;;;;;5.88;5.38;;;10.00;96.30;;;;;;4913934;29;20209;-67
2022/03/09 11:48:22;;;;;;;5.40;4.90;;;10.10;95.90;;;;;;4914145;29;20211;-67
2022/03/09 11:51:13;;;;;;;5.90;5.15;;;10.20;95.40;;;;;;4910783;29;20226;-69
2022/03/09 11:53:43;;;;;;;8.80;7.28;;;10.20;95.10;;;;;;4913901;29;20217;-68
2022/03/09 11:56:28;;;;;;;5.70;5.20;;;10.30;95.30;;;;;;4913109;29;20202;-68
2022/03/09 11:59:15;;;;;;;5.97;5.55;;;10.20;95.20;;;;;;4906820;29;20207;-67
2022/03/09 12:02:24;;;;;;;4.90;4.55;;;10.30;95.60;;;;;;4907310;29;20239;-67
2022/03/09 12:04:54;;;;;;;6.22;5.60;;;10.30;94.40;;;;;;4881415;29;20315;-67
2022/03/09 12:07:46;;;;;;;5.68;5.10;;;10.30;93.90;;;;;;4906400;29;20218;-67
2022/03/09 12:10:14;;;;;;;11.75;10.48;;;10.40;94.50;;;;;;4910687;29;20215;-68
2022/03/09 12:13:09;;;;;;;7.05;6.03;;;10.40;93.90;;;;;;4908483;29;20207;-67
2022/03/09 12:16:01;;;;;;;5.78;5.28;;;10.50;93.70;;;;;;4908690;29;20255;-68
2022/03/09 12:18:38;;;;;;;5.57;5.18;;;10.60;94.30;;;;;;4911342;29;20210;-68
2022/03/09 12:21:08;;;;;;;5.47;4.97;;;10.60;93.50;;;;;;4911305;29;20274;-68
2022/03/09 12:23:35;;;;;;;5.47;4.97;;;10.80;92.40;;;;;;4911886;29;20668;-69
2022/03/09 12:26:03;;;;;;;6.03;5.30;;;11.00;92.60;;;;;;4902931;29;20276;-68
2022/03/09 12:28:47;;;;;;;6.18;5.53;;;11.00;92.80;;;;;;4907041;29;20277;-69
2022/03/09 12:31:20;;;;;;;7.00;6.30;;;11.00;92.60;;;;;;4909898;29;20325;-68
2022/03/09 12:33:51;;;;;;;6.85;6.18;;;11.10;92.40;;;;;;4919230;29;20261;-68
2022/03/09 12:36:22;;;;;;;5.90;5.40;;;11.20;92.50;;;;;;4914503;29;20983;-67
2022/03/09 12:38:51;;;;;;;5.57;5.28;;;11.20;92.50;;;;;;4909857;29;20571;-67
2022/03/09 12:41:28;;;;;;;6.85;6.25;;;11.20;92.30;;;;;;4911758;29;20222;-68
2022/03/09 12:43:57;;;;;;;7.07;6.43;;;11.20;92.30;;;;;;4912523;29;20226;-67
2022/03/09 12:46:24;;;;;;;6.10;5.60;;;11.20;91.90;;;;;;4926713;29;20727;-68
2022/03/09 12:49:00;;;;;;;6.03;5.43;;;11.20;91.90;;;;;;4912346;29;20468;-67
2022/03/09 12:51:28;;;;;;;6.50;5.97;;;11.40;91.90;;;;;;4899001;29;20245;-67
2022/03/09 12:53:55;;;;;;;6.38;5.80;;;11.50;91.20;;;;;;4905261;29;20214;-67
2022/03/09 12:56:23;;;;;;;6.72;6.13;;;11.40;91.50;;;;;;4913103;29;20206;-68
2022/03/09 12:58:51;;;;;;;6.35;5.72;;;11.40;91.50;;;;;;4912864;29;20206;-68
2022/03/09 13:01:18;;;;;;;5.88;5.45;;;11.30;91.40;;;;;;4913115;29;20249;-68
2022/03/09 13:03:46;;;;;;;6.68;6.18;;;11.40;91.20;;;;;;4931230;29;20343;-69
2022/03/09 13:06:24;;;;;;;5.90;5.40;;;11.50;90.20;;;;;;4932697;29;20206;-71
2022/03/09 13:08:52;;;;;;;5.05;4.65;;;11.60;89.10;;;;;;4915277;29;20202;-68
2022/03/09 13:11:29;;;;;;;5.03;4.60;;;11.60;89.10;;;;;;4913027;29;20231;-69
2022/03/09 13:13:56;;;;;;;7.45;6.22;;;11.60;88.40;;;;;;4913092;29;20222;-69
2022/03/09 13:16:26;;;;;;;6.75;5.97;;;11.70;87.40;;;;;;4909401;29;20302;-69
2022/03/09 13:18:55;;;;;;;5.18;4.75;;;11.70;86.90;;;;;;4922986;29;20203;-69
2022/03/09 13:21:25;;;;;;;7.10;6.50;;;11.60;86.40;;;;;;4912971;29;20779;-69
2022/03/09 13:23:58;;;;;;;6.18;5.68;;;11.60;87.90;;;;;;4911788;29;20222;-68
2022/03/09 13:26:26;;;;;;;6.80;6.10;;;11.60;87.20;;;;;;4894289;29;20207;-69
2022/03/09 13:28:55;;;;;;;6.90;6.30;;;11.60;88.20;;;;;;4910070;29;20521;-69
2022/03/09 13:31:21;;;;;;;5.97;5.50;;;11.50;87.50;;;;;;4912411;29;20601;-69
2022/03/09 13:33:49;;;;;;;6.00;5.50;;;11.50;86.60;;;;;;4913654;29;20210;-68
2022/03/09 13:36:18;;;;;;;4.93;4.63;;;11.60;86.80;;;;;;4925352;29;20206;-67
2022/03/09 13:38:56;;;;;;;4.82;4.25;;;11.70;84.40;;;;;;4931953;29;20872;-68
2022/03/09 13:41:25;;;;;;;6.63;6.05;;;11.70;84.00;;;;;;4935423;29;20233;-68
2022/03/09 13:43:51;;;;;;;5.47;5.13;;;11.70;84.70;;;;;;4935920;29;20206;-69
2022/03/09 13:46:20;;;;;;;6.32;5.72;;;11.70;83.00;;;;;;4935785;29;20257;-68
2022/03/09 13:48:47;;;;;;;5.32;5.03;;;11.70;83.90;;;;;;4919339;29;20238;-69
2022/03/09 13:51:14;;;;;;;5.82;5.28;;;11.70;83.70;;;;;;4915665;29;20600;-68
2022/03/09 13:53:43;;;;;;;5.73;5.30;;;11.70;82.90;;;;;;4916066;29;20218;-68
2022/03/09 13:56:19;;;;;;;5.50;4.40;;;11.70;81.90;;;;;;4916751;29;20475;-68
2022/03/09 13:58:46;;;;;;;3.50;3.20;;;11.70;81.80;;;;;;4916203;29;20220;-68
2022/03/09 14:01:15;;;;;;;6.30;4.70;;;11.70;79.30;;;;;;4915808;29;20498;-69
2022/03/09 14:03:43;;;;;;;5.33;4.83;;;11.90;79.00;;;;;;4916141;29;20476;-69
2022/03/09 14:06:15;;;;;;;4.65;4.35;;;11.90;79.10;;;;;;4916166;29;20493;-69
2022/03/09 14:08:42;;;;;;;4.10;3.70;;;11.80;77.80;;;;;;4916084;29;20229;-69
2022/03/09 14:11:13;;;;;;;4.30;4.00;;;11.90;77.40;;;;;;4916909;29;20486;-69
2022/03/09 14:13:57;;;;;;;5.45;4.90;;;12.00;77.10;;;;;;4913411;29;20570;-69
2022/03/09 14:16:24;;;;;;;5.05;4.75;;;11.80;76.70;;;;;;4897457;29;20205;-69
2022/03/09 14:18:51;;;;;;;5.23;4.83;;;11.80;77.10;;;;;;4911564;29;20649;-69
2022/03/09 14:21:18;;;;;;;4.22;4.03;;;11.80;74.40;;;;;;4924362;29;20588;-69
2022/03/09 14:23:47;;;;;;;8.43;5.35;;;11.80;74.80;;;;;;4934233;29;20218;-68
2022/03/09 14:26:14;;;;;;;5.65;5.25;;;11.80;75.60;;;;;;4934942;29;20264;-69
2022/03/09 14:28:40;;;;;;;5.27;4.87;;;11.80;78.40;;;;;;4920739;29;20241;-69
2022/03/09 14:31:09;;;;;;;4.75;4.55;;;11.80;77.80;;;;;;4915610;29;20494;-69
2022/03/09 14:33:36;;;;;;;5.50;5.00;;;11.80;77.60;;;;;;4915422;29;20699;-69
2022/03/09 14:36:03;;;;;;;4.80;4.50;;;11.70;78.10;;;;;;4915391;29;20266;-69
2022/03/09 14:38:31;;;;;;;5.70;5.30;;;11.70;76.90;;;;;;4897599;29;20488;-70
2022/03/09 14:40:58;;;;;;;5.13;4.73;;;11.70;76.90;;;;;;4897539;29;21031;-68
2022/03/09 14:43:26;;;;;;;4.68;4.30;;;11.80;75.10;;;;;;4912848;29;20466;-68
2022/03/09 14:45:53;;;;;;;5.22;4.75;;;11.90;73.00;;;;;;4927652;29;20222;-69
2022/03/09 14:48:21;;;;;;;4.97;4.53;;;11.90;73.80;;;;;;4911226;29;20322;-68
2022/03/09 14:50:48;;;;;;;4.93;4.73;;;11.90;76.20;;;;;;4908554;29;20231;-68
2022/03/09 14:53:15;;;;;;;4.73;4.40;;;11.80;74.30;;;;;;4919597;29;20531;-69
2022/03/09 14:55:41;;;;;;;5.50;5.10;;;11.90;72.80;;;;;;4908519;29;21028;-68
2022/03/09 14:58:08;;;;;;;4.82;4.50;;;11.80;74.10;;;;;;4903735;29;20830;-68
2022/03/09 15:00:34;;;;;;;5.23;4.83;;;11.70;74.00;;;;;;4916740;29;20218;-68
2022/03/09 15:03:02;;;;;;;4.70;4.40;;;11.80;73.90;;;;;;4934224;29;20480;-69
2022/03/09 15:05:30;;;;;;;4.93;4.60;;;11.80;75.10;;;;;;4932774;29;20558;-68
2022/03/09 15:07:56;;;;;;;13.63;4.95;;;11.90;75.40;;;;;;4920026;29;21753;-69
2022/03/09 15:10:23;;;;;;;5.07;4.72;;;11.80;74.90;;;;;;4914210;29;20202;-69
2022/03/09 15:12:50;;;;;;;4.40;4.15;;;11.80;75.30;;;;;;4913165;29;20211;-68
2022/03/09 15:15:17;;;;;;;4.43;4.13;;;11.80;76.20;;;;;;4914781;29;20743;-69
2022/03/09 15:17:44;;;;;;;3.60;3.30;;;11.80;76.40;;;;;;4914500;29;20530;-69
2022/03/09 15:20:11;;;;;;;5.80;5.30;;;11.80;76.90;;;;;;4913971;29;20467;-69
2022/03/09 15:22:39;;;;;;;4.80;4.50;;;11.90;77.40;;;;;;4913317;29;20230;-69
2022/03/09 15:25:06;;;;;;;4.78;4.45;;;11.90;77.70;;;;;;4909610;29;20680;-68
2022/03/09 15:27:33;;;;;;;3.75;3.55;;;11.80;78.50;;;;;;4902739;29;20218;-69
2022/03/09 15:30:00;;;;;;;4.85;4.50;;;11.80;78.40;;;;;;4910897;29;20252;-72
2022/03/09 15:32:27;;;;;;;5.30;4.95;;;11.80;79.20;;;;;;4905521;29;20264;-68
2022/03/09 15:34:53;;;;;;;5.07;4.60;;;11.80;79.50;;;;;;4910680;29;20267;-68
2022/03/09 15:37:20;;;;;;;5.43;4.93;;;11.70;79.40;;;;;;4910531;29;20214;-69
2022/03/09 15:39:54;;;;;;;3.97;3.67;;;11.70;79.00;;;;;;4913316;29;20298;-69
2022/03/09 15:42:20;;;;;;;4.05;3.85;;;11.70;78.90;;;;;;4903230;29;20238;-69
2022/03/09 15:44:47;;;;;;;5.32;4.95;;;11.70;78.20;;;;;;4925579;29;20694;-70
2022/03/09 15:47:14;;;;;;;5.43;4.80;;;11.70;78.60;;;;;;4924673;29;20250;-69
2022/03/09 15:49:41;;;;;;;4.90;4.40;;;11.70;79.30;;;;;;4913428;29;20631;-68
2022/03/09 15:52:10;;;;;;;3.97;3.65;;;11.60;80.30;;;;;;4913771;29;20290;-69
2022/03/09 15:54:36;;;;;;;6.28;5.22;;;11.50;78.50;;;;;;4914010;29;20217;-68
2022/03/09 15:57:06;;;;;;;4.97;4.57;;;11.50;78.70;;;;;;4912962;29;20227;-69
2022/03/09 15:59:33;;;;;;;5.97;5.07;;;11.50;79.10;;;;;;4913119;29;20218;-68
2022/03/09 16:01:59;;;;;;;5.45;5.00;;;11.40;79.30;;;;;;4912985;29;20234;-68
2022/03/09 16:04:26;;;;;;;4.25;3.95;;;11.40;79.50;;;;;;4911075;29;20262;-68
2022/03/09 16:06:53;;;;;;;6.10;5.60;;;11.40;79.20;;;;;;4916854;29;20671;-69
2022/03/09 16:09:20;;;;;;;5.55;5.05;;;11.40;80.10;;;;;;4922404;29;20309;-68
2022/03/09 16:11:47;;;;;;;6.05;4.90;;;11.30;80.30;;;;;;4913420;29;20238;-68
2022/03/09 16:14:15;;;;;;;5.88;5.43;;;11.20;81.20;;;;;;4910180;29;20214;-69
2022/03/09 16:16:41;;;;;;;4.40;4.03;;;11.10;81.70;;;;;;4895095;29;20199;-68
2022/03/09 16:19:10;;;;;;;4.40;4.07;;;11.00;81.90;;;;;;4901493;29;20720;-70
2022/03/09 16:21:37;;;;;;;6.22;5.22;;;11.00;82.30;;;;;;4912659;29;20226;-69
2022/03/09 16:24:05;;;;;;;3.72;3.45;;;11.00;83.10;;;;;;4912318;29;20297;-69
2022/03/09 16:26:31;;;;;;;6.47;5.32;;;10.90;82.70;;;;;;4910063;29;20251;-69
2022/03/09 16:28:58;;;;;;;7.10;5.65;;;10.90;83.40;;;;;;4907384;29;20573;-69
2022/03/09 16:31:28;;;;;;;5.60;5.10;;;10.90;83.60;;;;;;4909257;29;20230;-69
2022/03/09 16:33:55;;;;;;;4.97;4.68;;;10.80;84.10;;;;;;4910255;29;20214;-69
2022/03/09 16:36:22;;;;;;;5.60;5.20;;;10.70;84.10;;;;;;4906561;29;20242;-68
2022/03/09 16:38:49;;;;;;;6.68;5.00;;;10.70;84.40;;;;;;4904271;29;20248;-68
2022/03/09 16:41:20;;;;;;;8.15;6.53;;;10.60;84.70;;;;;;4894232;29;20231;-70
2022/03/09 16:43:47;;;;;;;7.72;5.93;;;10.60;85.00;;;;;;4902033;29;20238;-69
2022/03/09 16:46:16;;;;;;;7.28;6.57;;;10.50;85.30;;;;;;4913406;29;20230;-69
2022/03/09 16:48:45;;;;;;;6.38;5.65;;;10.40;85.30;;;;;;4907238;29;20634;-68
2022/03/09 16:51:12;;;;;;;6.85;6.13;;;10.30;85.00;;;;;;4913179;29;20238;-67
2022/03/09 16:53:39;;;;;;;7.40;6.72;;;10.20;85.30;;;;;;4906721;29;20283;-67
2022/03/09 16:56:09;;;;;;;6.47;5.88;;;10.20;85.70;;;;;;4915286;29;20242;-68
2022/03/09 16:58:36;;;;;;;7.68;6.80;;;10.10;86.40;;;;;;4908284;29;20273;-69
2022/03/09 17:01:03;;;;;;;6.65;6.05;;;10.00;87.20;;;;;;4917946;29;20237;-69
2022/03/09 17:03:30;;;;;;;6.25;5.75;;;9.90;88.60;;;;;;4911818;29;20576;-69
2022/03/09 17:05:58;;;;;;;7.43;6.75;;;9.80;89.10;;;;;;4912111;29;21057;-69
2022/03/09 17:08:25;;;;;;;9.57;8.57;;;9.60;89.70;;;;;;4911732;29;20206;-68
2022/03/09 17:10:52;;;;;;;8.20;7.50;;;9.50;90.20;;;;;;4911228;29;20230;-69
2022/03/09 17:13:18;;;;;;;7.05;6.13;;;9.50;90.50;;;;;;4912260;29;20783;-69
2022/03/09 17:15:45;;;;;;;6.82;6.22;;;9.50;90.50;;;;;;4912985;29;20206;-68
2022/03/09 17:18:12;;;;;;;7.45;6.80;;;9.40;90.80;;;;;;4912697;29;20215;-68
2022/03/09 17:20:39;;;;;;;9.75;6.05;;;9.30;91.00;;;;;;4911333;29;20241;-68
2022/03/09 17:23:08;;;;;;;6.72;6.03;;;9.30;91.40;;;;;;4916956;29;20211;-69
2022/03/09 17:25:35;;;;;;;7.65;7.00;;;9.10;91.50;;;;;;4913290;29;20250;-69
2022/03/09 17:28:02;;;;;;;7.18;6.53;;;9.00;91.80;;;;;;4912632;29;20301;-68
2022/03/09 17:30:29;;;;;;;7.25;6.43;;;8.90;92.20;;;;;;4911949;29;20214;-69
2022/03/09 17:32:55;;;;;;;7.18;6.47;;;8.90;92.40;;;;;;4912461;29;20291;-68
2022/03/09 17:35:22;;;;;;;12.20;6.95;;;8.80;92.60;;;;;;4912232;29;20211;-67
2022/03/09 17:37:49;;;;;;;9.70;7.10;;;8.70;93.20;;;;;;4912373;29;20747;-68
2022/03/09 17:40:17;;;;;;;10.05;7.13;;;8.60;93.40;;;;;;4911265;29;20211;-67
2022/03/09 17:42:44;;;;;;;8.35;7.22;;;8.40;93.90;;;;;;4898326;29;20274;-67
2022/03/09 17:45:12;;;;;;;7.85;6.85;;;8.40;94.50;;;;;;4915763;29;20238;-69
2022/03/09 17:47:39;;;;;;;11.13;6.97;;;8.20;95.10;;;;;;4916045;29;20215;-69
2022/03/09 17:50:07;;;;;;;8.05;6.70;;;8.10;96.00;;;;;;4911615;29;20214;-69
2022/03/09 17:52:34;;;;;;;8.68;6.75;;;8.00;96.80;;;;;;4911742;29;20929;-69
2022/03/09 17:55:01;;;;;;;6.88;6.45;;;7.80;98.10;;;;;;4912370;29;20206;-70
2022/03/09 17:57:30;;;;;;;10.88;7.38;;;7.80;97.70;;;;;;4907338;29;20215;-69
2022/03/09 17:59:57;;;;;;;11.00;7.72;;;7.70;98.20;;;;;;4911017;29;20293;-70